sensor_id;sensor_type;location;lat;lon;timestamp;P1;durP1;ratioP1;P2;durP2;ratioP2
19016;SDS011;9641;51.494;6.670;2023-06-05T00:01:43;2.90;;;1.70;;
19016;SDS011;9641;51.494;6.670;2023-06-05T00:04:11;4.23;;;2.00;;
19016;SDS011;9641;51.494;6.670;2023-06-05T00:06:38;4.03;;;2.27;;
19016;SDS011;9641;51.494;6.670;2023-06-05T00:09:05;3.33;;;2.27;;
19016;SDS011;9641;51.494;6.670;2023-06-05T00:11:32;4.73;;;2.30;;
19016;SDS011;9641;51.494;6.670;2023-06-05T00:14:00;4.47;;;1.90;;
19016;SDS011;9641;51.494;6.670;2023-06-05T00:16:27;4.33;;;2.43;;
19016;SDS011;9641;51.494;6.670;2023-06-05T00:18:54;2.90;;;2.20;;
19016;SDS011;9641;51.494;6.670;2023-06-05T00:21:21;5.77;;;2.23;;
19016;SDS011;9641;51.494;6.670;2023-06-05T00:23:50;2.23;;;1.80;;
19016;SDS011;9641;51.494;6.670;2023-06-05T00:26:17;3.97;;;2.50;;
19016;SDS011;9641;51.494;6.670;2023-06-05T00:28:46;4.77;;;2.30;;
19016;SDS011;9641;51.494;6.670;2023-06-05T00:31:14;3.00;;;2.10;;
19016;SDS011;9641;51.494;6.670;2023-06-05T00:33:44;5.00;;;2.10;;
19016;SDS011;9641;51.494;6.670;2023-06-05T00:36:11;3.80;;;2.27;;
19016;SDS011;9641;51.494;6.670;2023-06-05T00:38:38;6.83;;;2.57;;
19016;SDS011;9641;51.494;6.670;2023-06-05T00:41:05;5.40;;;3.27;;
19016;SDS011;9641;51.494;6.670;2023-06-05T00:43:32;3.73;;;2.30;;
19016;SDS011;9641;51.494;6.670;2023-06-05T00:46:02;4.17;;;2.50;;
19016;SDS011;9641;51.494;6.670;2023-06-05T00:48:32;2.47;;;2.20;;
19016;SDS011;9641;51.494;6.670;2023-06-05T00:50:59;6.77;;;2.63;;
19016;SDS011;9641;51.494;6.670;2023-06-05T00:53:26;4.93;;;2.70;;
19016;SDS011;9641;51.494;6.670;2023-06-05T00:55:56;3.20;;;2.40;;
19016;SDS011;9641;51.494;6.670;2023-06-05T00:58:23;3.47;;;2.77;;
19016;SDS011;9641;51.494;6.670;2023-06-05T01:00:52;5.00;;;2.43;;
19016;SDS011;9641;51.494;6.670;2023-06-05T01:03:21;3.30;;;2.40;;
19016;SDS011;9641;51.494;6.670;2023-06-05T01:05:51;7.97;;;2.80;;
19016;SDS011;9641;51.494;6.670;2023-06-05T01:08:19;3.33;;;2.50;;
19016;SDS011;9641;51.494;6.670;2023-06-05T01:10:50;4.90;;;2.60;;
19016;SDS011;9641;51.494;6.670;2023-06-05T01:13:20;6.17;;;2.83;;
19016;SDS011;9641;51.494;6.670;2023-06-05T01:15:51;5.50;;;2.30;;
19016;SDS011;9641;51.494;6.670;2023-06-05T01:18:20;4.90;;;3.00;;
19016;SDS011;9641;51.494;6.670;2023-06-05T01:20:48;8.43;;;2.87;;
19016;SDS011;9641;51.494;6.670;2023-06-05T01:23:18;3.27;;;2.40;;
19016;SDS011;9641;51.494;6.670;2023-06-05T01:25:50;5.93;;;2.70;;
19016;SDS011;9641;51.494;6.670;2023-06-05T01:28:20;8.03;;;3.07;;
19016;SDS011;9641;51.494;6.670;2023-06-05T01:30:51;6.30;;;3.00;;
19016;SDS011;9641;51.494;6.670;2023-06-05T01:33:29;3.03;;;2.60;;
19016;SDS011;9641;51.494;6.670;2023-06-05T01:36:04;5.77;;;2.90;;
19016;SDS011;9641;51.494;6.670;2023-06-05T01:38:33;7.70;;;2.60;;
19016;SDS011;9641;51.494;6.670;2023-06-05T01:41:01;6.80;;;2.97;;
19016;SDS011;9641;51.494;6.670;2023-06-05T01:43:31;4.80;;;2.87;;
19016;SDS011;9641;51.494;6.670;2023-06-05T01:45:59;6.27;;;2.93;;
19016;SDS011;9641;51.494;6.670;2023-06-05T01:48:27;5.63;;;2.90;;
19016;SDS011;9641;51.494;6.670;2023-06-05T01:50:55;5.03;;;3.10;;
19016;SDS011;9641;51.494;6.670;2023-06-05T01:53:22;4.70;;;3.00;;
19016;SDS011;9641;51.494;6.670;2023-06-05T01:55:51;4.53;;;2.80;;
19016;SDS011;9641;51.494;6.670;2023-06-05T01:58:19;5.60;;;2.90;;
19016;SDS011;9641;51.494;6.670;2023-06-05T02:00:47;7.93;;;2.87;;
19016;SDS011;9641;51.494;6.670;2023-06-05T02:03:16;5.00;;;2.93;;
19016;SDS011;9641;51.494;6.670;2023-06-05T02:05:44;7.47;;;2.80;;
19016;SDS011;9641;51.494;6.670;2023-06-05T02:08:11;5.17;;;3.30;;
19016;SDS011;9641;51.494;6.670;2023-06-05T02:10:44;4.97;;;2.90;;
19016;SDS011;9641;51.494;6.670;2023-06-05T02:13:13;5.20;;;2.80;;
19016;SDS011;9641;51.494;6.670;2023-06-05T02:15:41;5.10;;;3.13;;
19016;SDS011;9641;51.494;6.670;2023-06-05T02:18:10;4.93;;;3.00;;
19016;SDS011;9641;51.494;6.670;2023-06-05T02:20:40;5.60;;;3.30;;
19016;SDS011;9641;51.494;6.670;2023-06-05T02:23:09;7.33;;;3.67;;
19016;SDS011;9641;51.494;6.670;2023-06-05T02:25:36;5.77;;;3.17;;
19016;SDS011;9641;51.494;6.670;2023-06-05T02:28:03;6.47;;;3.17;;
19016;SDS011;9641;51.494;6.670;2023-06-05T02:30:31;5.73;;;3.90;;
19016;SDS011;9641;51.494;6.670;2023-06-05T02:32:59;3.97;;;2.70;;
19016;SDS011;9641;51.494;6.670;2023-06-05T02:35:27;8.97;;;3.30;;
19016;SDS011;9641;51.494;6.670;2023-06-05T02:37:55;5.93;;;3.37;;
19016;SDS011;9641;51.494;6.670;2023-06-05T02:40:22;4.70;;;3.40;;
19016;SDS011;9641;51.494;6.670;2023-06-05T02:42:49;4.50;;;2.80;;
19016;SDS011;9641;51.494;6.670;2023-06-05T02:45:16;6.30;;;3.00;;
19016;SDS011;9641;51.494;6.670;2023-06-05T02:47:45;5.40;;;3.00;;
19016;SDS011;9641;51.494;6.670;2023-06-05T02:50:12;4.17;;;3.10;;
19016;SDS011;9641;51.494;6.670;2023-06-05T02:52:43;5.73;;;3.30;;
19016;SDS011;9641;51.494;6.670;2023-06-05T02:55:16;9.27;;;3.63;;
19016;SDS011;9641;51.494;6.670;2023-06-05T02:57:45;4.87;;;3.13;;
19016;SDS011;9641;51.494;6.670;2023-06-05T03:00:17;6.80;;;3.40;;
19016;SDS011;9641;51.494;6.670;2023-06-05T03:02:51;5.63;;;3.70;;
19016;SDS011;9641;51.494;6.670;2023-06-05T03:05:24;8.43;;;3.90;;
19016;SDS011;9641;51.494;6.670;2023-06-05T03:07:57;6.23;;;3.43;;
19016;SDS011;9641;51.494;6.670;2023-06-05T03:10:26;7.53;;;3.30;;
19016;SDS011;9641;51.494;6.670;2023-06-05T03:12:54;6.17;;;3.63;;
19016;SDS011;9641;51.494;6.670;2023-06-05T03:15:23;8.33;;;3.80;;
19016;SDS011;9641;51.494;6.670;2023-06-05T03:17:52;5.23;;;3.83;;
19016;SDS011;9641;51.494;6.670;2023-06-05T03:20:21;6.03;;;3.63;;
19016;SDS011;9641;51.494;6.670;2023-06-05T03:22:48;9.40;;;3.77;;
19016;SDS011;9641;51.494;6.670;2023-06-05T03:25:15;8.70;;;4.80;;
19016;SDS011;9641;51.494;6.670;2023-06-05T03:27:44;6.10;;;3.83;;
19016;SDS011;9641;51.494;6.670;2023-06-05T03:30:12;7.63;;;3.63;;
19016;SDS011;9641;51.494;6.670;2023-06-05T03:32:43;7.10;;;4.33;;
19016;SDS011;9641;51.494;6.670;2023-06-05T03:35:13;5.87;;;3.93;;
19016;SDS011;9641;51.494;6.670;2023-06-05T03:37:40;4.60;;;3.60;;
19016;SDS011;9641;51.494;6.670;2023-06-05T03:40:07;8.17;;;4.07;;
19016;SDS011;9641;51.494;6.670;2023-06-05T03:42:37;5.57;;;3.83;;
19016;SDS011;9641;51.494;6.670;2023-06-05T03:45:04;10.87;;;3.77;;
19016;SDS011;9641;51.494;6.670;2023-06-05T03:47:32;7.03;;;3.80;;
19016;SDS011;9641;51.494;6.670;2023-06-05T03:50:00;7.10;;;4.67;;
19016;SDS011;9641;51.494;6.670;2023-06-05T03:52:30;11.53;;;4.13;;
19016;SDS011;9641;51.494;6.670;2023-06-05T03:54:57;11.53;;;4.40;;
19016;SDS011;9641;51.494;6.670;2023-06-05T03:57:29;4.53;;;3.60;;
19016;SDS011;9641;51.494;6.670;2023-06-05T03:59:58;7.20;;;4.30;;
19016;SDS011;9641;51.494;6.670;2023-06-05T04:02:25;5.73;;;4.27;;
19016;SDS011;9641;51.494;6.670;2023-06-05T04:04:52;8.93;;;4.60;;
19016;SDS011;9641;51.494;6.670;2023-06-05T04:07:19;12.07;;;4.63;;
19016;SDS011;9641;51.494;6.670;2023-06-05T04:09:47;9.80;;;4.13;;
19016;SDS011;9641;51.494;6.670;2023-06-05T04:12:14;8.23;;;3.80;;
19016;SDS011;9641;51.494;6.670;2023-06-05T04:14:42;6.83;;;4.17;;
19016;SDS011;9641;51.494;6.670;2023-06-05T04:17:11;7.57;;;4.50;;
19016;SDS011;9641;51.494;6.670;2023-06-05T04:19:39;7.67;;;4.17;;
19016;SDS011;9641;51.494;6.670;2023-06-05T04:22:07;6.77;;;4.47;;
19016;SDS011;9641;51.494;6.670;2023-06-05T04:24:34;6.80;;;4.30;;
19016;SDS011;9641;51.494;6.670;2023-06-05T04:27:05;7.30;;;4.40;;
19016;SDS011;9641;51.494;6.670;2023-06-05T04:29:34;8.73;;;4.57;;
19016;SDS011;9641;51.494;6.670;2023-06-05T04:32:00;9.77;;;4.60;;
19016;SDS011;9641;51.494;6.670;2023-06-05T04:34:28;8.07;;;5.20;;
19016;SDS011;9641;51.494;6.670;2023-06-05T04:36:57;9.23;;;4.70;;
19016;SDS011;9641;51.494;6.670;2023-06-05T04:39:24;9.87;;;5.43;;
19016;SDS011;9641;51.494;6.670;2023-06-05T04:41:51;6.73;;;4.57;;
19016;SDS011;9641;51.494;6.670;2023-06-05T04:44:24;7.03;;;4.83;;
19016;SDS011;9641;51.494;6.670;2023-06-05T04:46:51;8.47;;;4.83;;
19016;SDS011;9641;51.494;6.670;2023-06-05T04:49:19;6.07;;;4.43;;
19016;SDS011;9641;51.494;6.670;2023-06-05T04:51:48;8.77;;;4.73;;
19016;SDS011;9641;51.494;6.670;2023-06-05T04:54:16;8.20;;;4.73;;
19016;SDS011;9641;51.494;6.670;2023-06-05T04:56:43;9.70;;;4.37;;
19016;SDS011;9641;51.494;6.670;2023-06-05T04:59:11;8.23;;;5.07;;
19016;SDS011;9641;51.494;6.670;2023-06-05T05:01:39;9.73;;;4.87;;
19016;SDS011;9641;51.494;6.670;2023-06-05T05:04:07;8.57;;;4.57;;
19016;SDS011;9641;51.494;6.670;2023-06-05T05:06:34;8.37;;;4.50;;
19016;SDS011;9641;51.494;6.670;2023-06-05T05:09:01;7.20;;;5.00;;
19016;SDS011;9641;51.494;6.670;2023-06-05T05:11:29;9.70;;;4.93;;
19016;SDS011;9641;51.494;6.670;2023-06-05T05:13:57;8.43;;;4.57;;
19016;SDS011;9641;51.494;6.670;2023-06-05T05:16:24;6.20;;;4.67;;
19016;SDS011;9641;51.494;6.670;2023-06-05T05:18:52;7.17;;;4.97;;
19016;SDS011;9641;51.494;6.670;2023-06-05T05:21:19;9.37;;;5.97;;
19016;SDS011;9641;51.494;6.670;2023-06-05T05:23:46;9.77;;;4.90;;
19016;SDS011;9641;51.494;6.670;2023-06-05T05:26:13;7.50;;;5.00;;
19016;SDS011;9641;51.494;6.670;2023-06-05T05:28:40;7.93;;;5.30;;
19016;SDS011;9641;51.494;6.670;2023-06-05T05:31:07;6.20;;;4.83;;
19016;SDS011;9641;51.494;6.670;2023-06-05T05:33:36;7.20;;;5.17;;
19016;SDS011;9641;51.494;6.670;2023-06-05T05:36:04;7.60;;;4.60;;
19016;SDS011;9641;51.494;6.670;2023-06-05T05:38:31;6.97;;;5.00;;
19016;SDS011;9641;51.494;6.670;2023-06-05T05:40:58;7.07;;;4.90;;
19016;SDS011;9641;51.494;6.670;2023-06-05T05:43:25;9.43;;;5.90;;
19016;SDS011;9641;51.494;6.670;2023-06-05T05:45:52;7.17;;;5.90;;
19016;SDS011;9641;51.494;6.670;2023-06-05T05:48:19;7.20;;;5.20;;
19016;SDS011;9641;51.494;6.670;2023-06-05T05:50:48;7.27;;;5.23;;
19016;SDS011;9641;51.494;6.670;2023-06-05T05:53:16;8.27;;;6.07;;
19016;SDS011;9641;51.494;6.670;2023-06-05T05:55:43;8.73;;;5.10;;
19016;SDS011;9641;51.494;6.670;2023-06-05T05:58:10;10.60;;;5.70;;
19016;SDS011;9641;51.494;6.670;2023-06-05T06:00:38;8.60;;;4.97;;
19016;SDS011;9641;51.494;6.670;2023-06-05T06:03:05;8.33;;;5.27;;
19016;SDS011;9641;51.494;6.670;2023-06-05T06:05:32;8.37;;;5.00;;
19016;SDS011;9641;51.494;6.670;2023-06-05T06:08:01;8.30;;;5.30;;
19016;SDS011;9641;51.494;6.670;2023-06-05T06:10:29;6.63;;;5.27;;
19016;SDS011;9641;51.494;6.670;2023-06-05T06:12:56;8.10;;;5.23;;
19016;SDS011;9641;51.494;6.670;2023-06-05T06:15:23;10.03;;;5.43;;
19016;SDS011;9641;51.494;6.670;2023-06-05T06:17:52;11.40;;;5.50;;
19016;SDS011;9641;51.494;6.670;2023-06-05T06:20:19;13.80;;;5.87;;
19016;SDS011;9641;51.494;6.670;2023-06-05T06:22:47;12.60;;;5.30;;
19016;SDS011;9641;51.494;6.670;2023-06-05T06:25:14;7.60;;;5.77;;
19016;SDS011;9641;51.494;6.670;2023-06-05T06:27:43;12.57;;;6.00;;
19016;SDS011;9641;51.494;6.670;2023-06-05T06:30:13;7.90;;;5.67;;
19016;SDS011;9641;51.494;6.670;2023-06-05T06:32:41;10.63;;;5.97;;
19016;SDS011;9641;51.494;6.670;2023-06-05T06:35:08;9.83;;;5.70;;
19016;SDS011;9641;51.494;6.670;2023-06-05T06:37:35;10.53;;;6.33;;
19016;SDS011;9641;51.494;6.670;2023-06-05T06:40:02;11.03;;;6.63;;
19016;SDS011;9641;51.494;6.670;2023-06-05T06:42:34;10.10;;;5.90;;
19016;SDS011;9641;51.494;6.670;2023-06-05T06:45:15;8.50;;;5.70;;
19016;SDS011;9641;51.494;6.670;2023-06-05T06:47:42;15.23;;;5.97;;
19016;SDS011;9641;51.494;6.670;2023-06-05T06:50:09;9.30;;;5.67;;
19016;SDS011;9641;51.494;6.670;2023-06-05T06:52:36;7.63;;;5.83;;
19016;SDS011;9641;51.494;6.670;2023-06-05T06:55:04;13.63;;;6.67;;
19016;SDS011;9641;51.494;6.670;2023-06-05T06:57:32;9.23;;;5.50;;
19016;SDS011;9641;51.494;6.670;2023-06-05T06:59:59;9.47;;;5.60;;
19016;SDS011;9641;51.494;6.670;2023-06-05T07:02:27;10.00;;;5.60;;
19016;SDS011;9641;51.494;6.670;2023-06-05T07:04:54;9.47;;;5.43;;
19016;SDS011;9641;51.494;6.670;2023-06-05T07:07:22;10.40;;;5.40;;
19016;SDS011;9641;51.494;6.670;2023-06-05T07:09:50;7.23;;;5.50;;
19016;SDS011;9641;51.494;6.670;2023-06-05T07:12:17;7.63;;;5.97;;
19016;SDS011;9641;51.494;6.670;2023-06-05T07:14:47;8.20;;;5.27;;
19016;SDS011;9641;51.494;6.670;2023-06-05T07:17:15;8.93;;;5.37;;
19016;SDS011;9641;51.494;6.670;2023-06-05T07:19:43;10.73;;;5.60;;
19016;SDS011;9641;51.494;6.670;2023-06-05T07:22:10;7.67;;;5.23;;
19016;SDS011;9641;51.494;6.670;2023-06-05T07:24:37;11.53;;;5.83;;
19016;SDS011;9641;51.494;6.670;2023-06-05T07:27:05;8.10;;;5.13;;
19016;SDS011;9641;51.494;6.670;2023-06-05T07:29:33;11.07;;;5.37;;
19016;SDS011;9641;51.494;6.670;2023-06-05T07:32:01;13.03;;;6.47;;
19016;SDS011;9641;51.494;6.670;2023-06-05T07:34:31;10.17;;;5.63;;
19016;SDS011;9641;51.494;6.670;2023-06-05T07:36:59;9.93;;;5.67;;
19016;SDS011;9641;51.494;6.670;2023-06-05T07:39:27;13.37;;;5.40;;
19016;SDS011;9641;51.494;6.670;2023-06-05T07:41:54;8.27;;;5.93;;
19016;SDS011;9641;51.494;6.670;2023-06-05T07:44:21;9.93;;;5.63;;
19016;SDS011;9641;51.494;6.670;2023-06-05T07:46:48;9.17;;;5.97;;
19016;SDS011;9641;51.494;6.670;2023-06-05T07:49:16;10.67;;;6.03;;
19016;SDS011;9641;51.494;6.670;2023-06-05T07:51:43;10.50;;;5.67;;
19016;SDS011;9641;51.494;6.670;2023-06-05T07:54:14;9.70;;;5.23;;
19016;SDS011;9641;51.494;6.670;2023-06-05T07:56:42;12.53;;;5.50;;
19016;SDS011;9641;51.494;6.670;2023-06-05T07:59:09;6.70;;;5.27;;
19016;SDS011;9641;51.494;6.670;2023-06-05T08:01:39;9.10;;;5.20;;
19016;SDS011;9641;51.494;6.670;2023-06-05T08:04:06;7.40;;;4.93;;
19016;SDS011;9641;51.494;6.670;2023-06-05T08:06:36;7.50;;;4.77;;
19016;SDS011;9641;51.494;6.670;2023-06-05T08:09:05;9.27;;;4.73;;
19016;SDS011;9641;51.494;6.670;2023-06-05T08:11:36;6.30;;;4.20;;
19016;SDS011;9641;51.494;6.670;2023-06-05T08:14:04;8.23;;;4.80;;
19016;SDS011;9641;51.494;6.670;2023-06-05T08:16:32;8.23;;;4.63;;
19016;SDS011;9641;51.494;6.670;2023-06-05T08:18:58;8.23;;;5.00;;
19016;SDS011;9641;51.494;6.670;2023-06-05T08:21:26;9.23;;;4.67;;
19016;SDS011;9641;51.494;6.670;2023-06-05T08:23:53;5.97;;;4.57;;
19016;SDS011;9641;51.494;6.670;2023-06-05T08:26:23;10.40;;;5.13;;
19016;SDS011;9641;51.494;6.670;2023-06-05T08:28:52;5.40;;;4.50;;
19016;SDS011;9641;51.494;6.670;2023-06-05T08:31:19;8.20;;;4.60;;
19016;SDS011;9641;51.494;6.670;2023-06-05T08:33:47;6.60;;;4.07;;
19016;SDS011;9641;51.494;6.670;2023-06-05T08:36:14;9.63;;;5.17;;
19016;SDS011;9641;51.494;6.670;2023-06-05T08:38:41;8.50;;;4.70;;
19016;SDS011;9641;51.494;6.670;2023-06-05T08:41:08;10.83;;;4.40;;
19016;SDS011;9641;51.494;6.670;2023-06-05T08:43:35;11.13;;;4.83;;
19016;SDS011;9641;51.494;6.670;2023-06-05T08:46:05;7.83;;;4.30;;
19016;SDS011;9641;51.494;6.670;2023-06-05T08:48:36;7.40;;;4.30;;
19016;SDS011;9641;51.494;6.670;2023-06-05T08:51:07;7.33;;;4.70;;
19016;SDS011;9641;51.494;6.670;2023-06-05T08:53:37;7.40;;;4.70;;
19016;SDS011;9641;51.494;6.670;2023-06-05T08:56:05;8.63;;;4.93;;
19016;SDS011;9641;51.494;6.670;2023-06-05T08:58:33;9.07;;;4.60;;
19016;SDS011;9641;51.494;6.670;2023-06-05T09:01:01;8.87;;;5.17;;
19016;SDS011;9641;51.494;6.670;2023-06-05T09:03:29;9.90;;;4.67;;
19016;SDS011;9641;51.494;6.670;2023-06-05T09:05:59;10.63;;;4.80;;
19016;SDS011;9641;51.494;6.670;2023-06-05T09:08:28;6.30;;;4.63;;
19016;SDS011;9641;51.494;6.670;2023-06-05T09:13:46;8.27;;;4.47;;
19016;SDS011;9641;51.494;6.670;2023-06-05T09:16:14;9.07;;;4.63;;
19016;SDS011;9641;51.494;6.670;2023-06-05T09:18:52;6.20;;;4.50;;
19016;SDS011;9641;51.494;6.670;2023-06-05T09:21:20;6.37;;;4.37;;
19016;SDS011;9641;51.494;6.670;2023-06-05T09:23:47;8.50;;;4.70;;
19016;SDS011;9641;51.494;6.670;2023-06-05T09:26:14;8.20;;;5.00;;
19016;SDS011;9641;51.494;6.670;2023-06-05T09:28:54;10.47;;;4.73;;
19016;SDS011;9641;51.494;6.670;2023-06-05T09:31:22;5.73;;;3.57;;
19016;SDS011;9641;51.494;6.670;2023-06-05T09:33:57;8.03;;;4.27;;
19016;SDS011;9641;51.494;6.670;2023-06-05T09:36:24;7.53;;;4.77;;
19016;SDS011;9641;51.494;6.670;2023-06-05T09:38:52;5.87;;;4.13;;
19016;SDS011;9641;51.494;6.670;2023-06-05T09:41:20;5.83;;;4.40;;
19016;SDS011;9641;51.494;6.670;2023-06-05T09:43:47;6.43;;;4.40;;
19016;SDS011;9641;51.494;6.670;2023-06-05T09:46:15;6.03;;;4.43;;
19016;SDS011;9641;51.494;6.670;2023-06-05T09:48:43;7.65;;;4.00;;
19016;SDS011;9641;51.494;6.670;2023-06-05T09:51:21;4.68;;;3.90;;
19016;SDS011;9641;51.494;6.670;2023-06-05T09:53:48;6.15;;;4.18;;
19016;SDS011;9641;51.494;6.670;2023-06-05T09:56:16;6.87;;;4.40;;
19016;SDS011;9641;51.494;6.670;2023-06-05T09:58:45;6.20;;;4.40;;
19016;SDS011;9641;51.494;6.670;2023-06-05T10:01:14;7.38;;;4.22;;
19016;SDS011;9641;51.494;6.670;2023-06-05T10:03:44;9.57;;;4.80;;
19016;SDS011;9641;51.494;6.670;2023-06-05T10:06:14;8.48;;;4.53;;
19016;SDS011;9641;51.494;6.670;2023-06-05T10:08:50;7.55;;;4.43;;
19016;SDS011;9641;51.494;6.670;2023-06-05T10:11:19;7.13;;;3.88;;
19016;SDS011;9641;51.494;6.670;2023-06-05T10:13:47;9.57;;;4.60;;
19016;SDS011;9641;51.494;6.670;2023-06-05T10:16:15;10.57;;;3.85;;
19016;SDS011;9641;51.494;6.670;2023-06-05T10:18:45;8.10;;;4.10;;
19016;SDS011;9641;51.494;6.670;2023-06-05T10:21:13;8.10;;;4.18;;
19016;SDS011;9641;51.494;6.670;2023-06-05T10:23:42;7.22;;;3.72;;
19016;SDS011;9641;51.494;6.670;2023-06-05T10:26:15;7.45;;;4.40;;
19016;SDS011;9641;51.494;6.670;2023-06-05T10:28:56;7.18;;;3.45;;
19016;SDS011;9641;51.494;6.670;2023-06-05T10:31:34;9.10;;;4.00;;
19016;SDS011;9641;51.494;6.670;2023-06-05T10:34:18;6.03;;;3.83;;
19016;SDS011;9641;51.494;6.670;2023-06-05T10:37:18;8.55;;;3.90;;
19016;SDS011;9641;51.494;6.670;2023-06-05T10:40:04;5.97;;;3.70;;
19016;SDS011;9641;51.494;6.670;2023-06-05T10:42:36;5.57;;;3.65;;
19016;SDS011;9641;51.494;6.670;2023-06-05T10:45:04;5.70;;;3.58;;
19016;SDS011;9641;51.494;6.670;2023-06-05T10:47:48;6.35;;;3.53;;
19016;SDS011;9641;51.494;6.670;2023-06-05T10:50:21;8.15;;;3.97;;
19016;SDS011;9641;51.494;6.670;2023-06-05T10:52:51;9.10;;;3.50;;
19016;SDS011;9641;51.494;6.670;2023-06-05T10:55:19;6.07;;;3.30;;
19016;SDS011;9641;51.494;6.670;2023-06-05T11:03:53;9.65;;;5.25;;
19016;SDS011;9641;51.494;6.670;2023-06-05T11:06:23;6.80;;;3.13;;
19016;SDS011;9641;51.494;6.670;2023-06-05T11:14:24;6.05;;;3.28;;
19016;SDS011;9641;51.494;6.670;2023-06-05T11:16:51;4.78;;;3.15;;
19016;SDS011;9641;51.494;6.670;2023-06-05T11:19:37;4.28;;;2.83;;
19016;SDS011;9641;51.494;6.670;2023-06-05T11:22:04;6.53;;;3.03;;
19016;SDS011;9641;51.494;6.670;2023-06-05T11:24:34;4.57;;;2.80;;
19016;SDS011;9641;51.494;6.670;2023-06-05T11:27:02;7.53;;;2.78;;
19016;SDS011;9641;51.494;6.670;2023-06-05T11:29:32;4.40;;;2.63;;
19016;SDS011;9641;51.494;6.670;2023-06-05T11:31:59;3.60;;;2.20;;
19016;SDS011;9641;51.494;6.670;2023-06-05T11:34:27;5.25;;;2.40;;
19016;SDS011;9641;51.494;6.670;2023-06-05T11:36:55;4.53;;;2.45;;
19016;SDS011;9641;51.494;6.670;2023-06-05T11:39:23;3.88;;;2.17;;
19016;SDS011;9641;51.494;6.670;2023-06-05T11:41:55;6.05;;;2.50;;
19016;SDS011;9641;51.494;6.670;2023-06-05T11:44:33;5.35;;;2.25;;
19016;SDS011;9641;51.494;6.670;2023-06-05T11:47:01;2.00;;;1.80;;
19016;SDS011;9641;51.494;6.670;2023-06-05T11:49:28;5.25;;;2.40;;
19016;SDS011;9641;51.494;6.670;2023-06-05T11:51:56;3.25;;;2.50;;
19016;SDS011;9641;51.494;6.670;2023-06-05T11:54:24;3.60;;;2.38;;
19016;SDS011;9641;51.494;6.670;2023-06-05T11:56:56;5.45;;;2.10;;
19016;SDS011;9641;51.494;6.670;2023-06-05T11:59:34;3.42;;;2.05;;
19016;SDS011;9641;51.494;6.670;2023-06-05T12:02:02;8.10;;;2.40;;
19016;SDS011;9641;51.494;6.670;2023-06-05T12:04:31;5.47;;;3.38;;
19016;SDS011;9641;51.494;6.670;2023-06-05T12:06:59;3.42;;;2.55;;
19016;SDS011;9641;51.494;6.670;2023-06-05T12:09:28;2.58;;;2.10;;
19016;SDS011;9641;51.494;6.670;2023-06-05T12:12:05;2.95;;;2.38;;
19016;SDS011;9641;51.494;6.670;2023-06-05T12:14:33;3.90;;;2.20;;
19016;SDS011;9641;51.494;6.670;2023-06-05T12:17:08;4.13;;;2.05;;
19016;SDS011;9641;51.494;6.670;2023-06-05T12:19:35;4.07;;;2.25;;
19016;SDS011;9641;51.494;6.670;2023-06-05T12:22:04;6.55;;;2.33;;
19016;SDS011;9641;51.494;6.670;2023-06-05T12:24:32;3.35;;;2.20;;
19016;SDS011;9641;51.494;6.670;2023-06-05T12:26:59;3.50;;;2.15;;
19016;SDS011;9641;51.494;6.670;2023-06-05T12:29:30;3.33;;;2.10;;
19016;SDS011;9641;51.494;6.670;2023-06-05T12:31:59;7.60;;;2.70;;
19016;SDS011;9641;51.494;6.670;2023-06-05T12:34:37;3.10;;;2.30;;
19016;SDS011;9641;51.494;6.670;2023-06-05T12:37:06;3.50;;;2.30;;
19016;SDS011;9641;51.494;6.670;2023-06-05T12:39:33;5.10;;;2.53;;
19016;SDS011;9641;51.494;6.670;2023-06-05T12:42:01;3.05;;;2.22;;
19016;SDS011;9641;51.494;6.670;2023-06-05T12:44:29;5.70;;;2.83;;
19016;SDS011;9641;51.494;6.670;2023-06-05T12:46:56;2.50;;;2.05;;
19016;SDS011;9641;51.494;6.670;2023-06-05T12:49:25;3.00;;;2.00;;
19016;SDS011;9641;51.494;6.670;2023-06-05T12:51:52;2.60;;;2.10;;
19016;SDS011;9641;51.494;6.670;2023-06-05T12:54:19;3.38;;;2.22;;
19016;SDS011;9641;51.494;6.670;2023-06-05T12:56:46;3.58;;;2.30;;
19016;SDS011;9641;51.494;6.670;2023-06-05T12:59:14;4.03;;;2.50;;
19016;SDS011;9641;51.494;6.670;2023-06-05T13:01:41;2.50;;;2.30;;
19016;SDS011;9641;51.494;6.670;2023-06-05T13:04:09;2.85;;;2.33;;
19016;SDS011;9641;51.494;6.670;2023-06-05T13:06:36;4.82;;;2.65;;
19016;SDS011;9641;51.494;6.670;2023-06-05T13:09:03;3.95;;;2.80;;
19016;SDS011;9641;51.494;6.670;2023-06-05T13:11:30;4.97;;;2.85;;
19016;SDS011;9641;51.494;6.670;2023-06-05T13:13:57;3.83;;;2.92;;
19016;SDS011;9641;51.494;6.670;2023-06-05T13:16:25;3.67;;;2.53;;
19016;SDS011;9641;51.494;6.670;2023-06-05T13:18:53;3.13;;;2.78;;
19016;SDS011;9641;51.494;6.670;2023-06-05T13:21:22;4.10;;;2.72;;
19016;SDS011;9641;51.494;6.670;2023-06-05T13:23:49;6.13;;;2.80;;
19016;SDS011;9641;51.494;6.670;2023-06-05T13:26:17;4.53;;;3.05;;
19016;SDS011;9641;51.494;6.670;2023-06-05T13:28:43;4.30;;;2.50;;
19016;SDS011;9641;51.494;6.670;2023-06-05T13:31:11;4.75;;;2.80;;
19016;SDS011;9641;51.494;6.670;2023-06-05T13:33:38;3.30;;;2.85;;
19016;SDS011;9641;51.494;6.670;2023-06-05T13:36:06;2.63;;;2.30;;
19016;SDS011;9641;51.494;6.670;2023-06-05T13:38:34;5.45;;;2.65;;
19016;SDS011;9641;51.494;6.670;2023-06-05T13:41:03;3.58;;;3.05;;
19016;SDS011;9641;51.494;6.670;2023-06-05T13:43:33;4.95;;;2.80;;
19016;SDS011;9641;51.494;6.670;2023-06-05T13:46:08;3.10;;;2.60;;
19016;SDS011;9641;51.494;6.670;2023-06-05T13:48:35;2.92;;;2.40;;
19016;SDS011;9641;51.494;6.670;2023-06-05T13:51:02;2.83;;;2.50;;
19016;SDS011;9641;51.494;6.670;2023-06-05T13:53:30;4.93;;;3.03;;
19016;SDS011;9641;51.494;6.670;2023-06-05T13:56:01;4.78;;;2.78;;
19016;SDS011;9641;51.494;6.670;2023-06-05T13:58:28;4.15;;;2.63;;
19016;SDS011;9641;51.494;6.670;2023-06-05T14:00:57;4.65;;;2.60;;
19016;SDS011;9641;51.494;6.670;2023-06-05T14:03:25;3.17;;;2.85;;
19016;SDS011;9641;51.494;6.670;2023-06-05T14:05:53;2.72;;;2.53;;
19016;SDS011;9641;51.494;6.670;2023-06-05T14:08:20;5.63;;;2.55;;
19016;SDS011;9641;51.494;6.670;2023-06-05T14:10:47;2.60;;;2.38;;
19016;SDS011;9641;51.494;6.670;2023-06-05T14:13:16;3.92;;;2.40;;
19016;SDS011;9641;51.494;6.670;2023-06-05T14:15:43;3.22;;;2.70;;
19016;SDS011;9641;51.494;6.670;2023-06-05T14:18:10;3.88;;;2.70;;
19016;SDS011;9641;51.494;6.670;2023-06-05T14:20:37;4.65;;;3.28;;
19016;SDS011;9641;51.494;6.670;2023-06-05T14:23:04;4.03;;;2.60;;
19016;SDS011;9641;51.494;6.670;2023-06-05T14:25:31;4.75;;;2.85;;
19016;SDS011;9641;51.494;6.670;2023-06-05T14:27:59;2.75;;;2.45;;
19016;SDS011;9641;51.494;6.670;2023-06-05T14:30:27;3.45;;;2.45;;
19016;SDS011;9641;51.494;6.670;2023-06-05T14:32:55;5.13;;;2.42;;
19016;SDS011;9641;51.494;6.670;2023-06-05T14:35:22;3.00;;;2.70;;
19016;SDS011;9641;51.494;6.670;2023-06-05T14:37:49;4.32;;;2.58;;
19016;SDS011;9641;51.494;6.670;2023-06-05T14:40:16;3.05;;;2.50;;
19016;SDS011;9641;51.494;6.670;2023-06-05T14:42:44;4.45;;;2.53;;
19016;SDS011;9641;51.494;6.670;2023-06-05T14:45:11;3.60;;;2.38;;
19016;SDS011;9641;51.494;6.670;2023-06-05T14:47:39;5.72;;;2.80;;
19016;SDS011;9641;51.494;6.670;2023-06-05T14:50:06;2.63;;;2.33;;
19016;SDS011;9641;51.494;6.670;2023-06-05T14:52:34;6.10;;;2.53;;
19016;SDS011;9641;51.494;6.670;2023-06-05T14:55:01;6.00;;;2.30;;
19016;SDS011;9641;51.494;6.670;2023-06-05T14:57:28;2.80;;;2.40;;
19016;SDS011;9641;51.494;6.670;2023-06-05T14:59:55;3.80;;;2.42;;
19016;SDS011;9641;51.494;6.670;2023-06-05T15:02:22;3.00;;;2.60;;
19016;SDS011;9641;51.494;6.670;2023-06-05T15:04:50;5.13;;;2.75;;
19016;SDS011;9641;51.494;6.670;2023-06-05T15:07:18;5.25;;;2.47;;
19016;SDS011;9641;51.494;6.670;2023-06-05T15:09:46;5.40;;;2.30;;
19016;SDS011;9641;51.494;6.670;2023-06-05T15:12:13;4.38;;;2.33;;
19016;SDS011;9641;51.494;6.670;2023-06-05T15:14:40;4.60;;;2.30;;
19016;SDS011;9641;51.494;6.670;2023-06-05T15:17:07;3.22;;;2.30;;
19016;SDS011;9641;51.494;6.670;2023-06-05T15:19:35;4.15;;;2.63;;
19016;SDS011;9641;51.494;6.670;2023-06-05T15:22:04;3.50;;;2.30;;
19016;SDS011;9641;51.494;6.670;2023-06-05T15:24:33;2.95;;;2.55;;